sensor_id;sensor_type;location;lat;lon;timestamp;P1;durP1;ratioP1;P2;durP2;ratioP2
80961;SDS011;70424;55.154;14.722;2023-11-19T00:01:30;7.97;;;4.05;;
80961;SDS011;70424;55.154;14.722;2023-11-19T00:03:55;8.15;;;4.90;;
80961;SDS011;70424;55.154;14.722;2023-11-19T00:06:20;10.20;;;4.88;;
80961;SDS011;70424;55.154;14.722;2023-11-19T00:08:45;8.55;;;5.10;;
80961;SDS011;70424;55.154;14.722;2023-11-19T00:11:11;9.93;;;5.43;;
80961;SDS011;70424;55.154;14.722;2023-11-19T00:13:40;9.90;;;5.53;;
80961;SDS011;70424;55.154;14.722;2023-11-19T00:16:06;9.63;;;4.97;;
80961;SDS011;70424;55.154;14.722;2023-11-19T00:18:32;9.43;;;5.32;;
80961;SDS011;70424;55.154;14.722;2023-11-19T00:20:57;9.15;;;5.57;;
80961;SDS011;70424;55.154;14.722;2023-11-19T00:23:23;10.90;;;5.88;;
80961;SDS011;70424;55.154;14.722;2023-11-19T00:25:48;10.63;;;5.85;;
80961;SDS011;70424;55.154;14.722;2023-11-19T00:28:14;8.30;;;5.15;;
80961;SDS011;70424;55.154;14.722;2023-11-19T00:30:39;9.43;;;5.75;;
80961;SDS011;70424;55.154;14.722;2023-11-19T00:33:06;8.85;;;4.78;;
80961;SDS011;70424;55.154;14.722;2023-11-19T00:35:31;8.25;;;4.97;;
80961;SDS011;70424;55.154;14.722;2023-11-19T00:37:57;9.18;;;4.68;;
80961;SDS011;70424;55.154;14.722;2023-11-19T00:40:23;7.60;;;4.13;;
80961;SDS011;70424;55.154;14.722;2023-11-19T00:42:49;5.85;;;3.40;;
80961;SDS011;70424;55.154;14.722;2023-11-19T00:45:14;5.22;;;3.28;;
80961;SDS011;70424;55.154;14.722;2023-11-19T00:47:39;7.32;;;3.42;;
80961;SDS011;70424;55.154;14.722;2023-11-19T00:50:05;6.30;;;3.35;;
80961;SDS011;70424;55.154;14.722;2023-11-19T00:52:34;6.78;;;3.63;;
80961;SDS011;70424;55.154;14.722;2023-11-19T00:55:01;7.25;;;3.55;;
80961;SDS011;70424;55.154;14.722;2023-11-19T00:57:26;6.10;;;3.75;;
80961;SDS011;70424;55.154;14.722;2023-11-19T00:59:52;5.30;;;3.60;;
80961;SDS011;70424;55.154;14.722;2023-11-19T01:02:17;7.38;;;3.47;;
80961;SDS011;70424;55.154;14.722;2023-11-19T01:04:43;5.63;;;3.38;;
80961;SDS011;70424;55.154;14.722;2023-11-19T01:07:09;7.15;;;3.38;;
80961;SDS011;70424;55.154;14.722;2023-11-19T01:09:37;7.15;;;3.63;;
80961;SDS011;70424;55.154;14.722;2023-11-19T01:12:03;5.55;;;3.45;;
80961;SDS011;70424;55.154;14.722;2023-11-19T01:14:28;8.18;;;4.20;;
80961;SDS011;70424;55.154;14.722;2023-11-19T01:16:54;9.00;;;4.63;;
80961;SDS011;70424;55.154;14.722;2023-11-19T01:19:21;7.78;;;4.25;;
80961;SDS011;70424;55.154;14.722;2023-11-19T01:21:47;6.95;;;4.18;;
80961;SDS011;70424;55.154;14.722;2023-11-19T01:24:12;7.88;;;4.32;;
80961;SDS011;70424;55.154;14.722;2023-11-19T01:26:39;8.27;;;4.03;;
80961;SDS011;70424;55.154;14.722;2023-11-19T01:29:10;7.55;;;4.05;;
80961;SDS011;70424;55.154;14.722;2023-11-19T01:31:35;8.60;;;3.92;;
80961;SDS011;70424;55.154;14.722;2023-11-19T01:34:02;6.13;;;3.83;;
80961;SDS011;70424;55.154;14.722;2023-11-19T01:36:27;7.10;;;3.63;;
80961;SDS011;70424;55.154;14.722;2023-11-19T01:38:53;7.55;;;4.13;;
80961;SDS011;70424;55.154;14.722;2023-11-19T01:41:18;8.02;;;3.75;;
80961;SDS011;70424;55.154;14.722;2023-11-19T01:43:44;6.82;;;3.70;;
80961;SDS011;70424;55.154;14.722;2023-11-19T01:46:12;6.93;;;3.55;;
80961;SDS011;70424;55.154;14.722;2023-11-19T01:48:39;6.53;;;3.83;;
80961;SDS011;70424;55.154;14.722;2023-11-19T01:51:08;7.85;;;3.85;;
80961;SDS011;70424;55.154;14.722;2023-11-19T01:53:34;7.88;;;4.18;;
80961;SDS011;70424;55.154;14.722;2023-11-19T01:56:01;6.85;;;4.13;;
80961;SDS011;70424;55.154;14.722;2023-11-19T01:58:28;8.52;;;3.70;;
80961;SDS011;70424;55.154;14.722;2023-11-19T02:00:55;6.72;;;3.40;;
80961;SDS011;70424;55.154;14.722;2023-11-19T02:03:21;6.32;;;3.40;;
80961;SDS011;70424;55.154;14.722;2023-11-19T02:05:48;7.55;;;3.55;;
80961;SDS011;70424;55.154;14.722;2023-11-19T02:08:14;6.28;;;3.30;;
80961;SDS011;70424;55.154;14.722;2023-11-19T02:10:39;6.80;;;3.42;;
80961;SDS011;70424;55.154;14.722;2023-11-19T02:13:05;7.15;;;4.18;;
80961;SDS011;70424;55.154;14.722;2023-11-19T02:15:31;7.07;;;3.58;;
80961;SDS011;70424;55.154;14.722;2023-11-19T02:17:58;6.38;;;3.72;;
80961;SDS011;70424;55.154;14.722;2023-11-19T02:20:42;6.15;;;3.67;;
80961;SDS011;70424;55.154;14.722;2023-11-19T02:23:07;7.10;;;4.18;;
80961;SDS011;70424;55.154;14.722;2023-11-19T02:25:33;8.57;;;4.57;;
80961;SDS011;70424;55.154;14.722;2023-11-19T02:27:59;8.40;;;4.50;;
80961;SDS011;70424;55.154;14.722;2023-11-19T02:30:26;8.63;;;4.80;;
80961;SDS011;70424;55.154;14.722;2023-11-19T02:32:53;8.82;;;4.70;;
80961;SDS011;70424;55.154;14.722;2023-11-19T02:35:22;10.68;;;4.75;;
80961;SDS011;70424;55.154;14.722;2023-11-19T02:37:48;9.27;;;4.75;;
80961;SDS011;70424;55.154;14.722;2023-11-19T02:40:13;8.02;;;4.70;;
80961;SDS011;70424;55.154;14.722;2023-11-19T02:42:38;8.73;;;4.63;;
80961;SDS011;70424;55.154;14.722;2023-11-19T02:45:04;9.32;;;4.53;;
80961;SDS011;70424;55.154;14.722;2023-11-19T02:47:31;8.73;;;4.47;;
80961;SDS011;70424;55.154;14.722;2023-11-19T02:49:56;8.23;;;4.43;;
80961;SDS011;70424;55.154;14.722;2023-11-19T02:52:22;7.80;;;3.97;;
80961;SDS011;70424;55.154;14.722;2023-11-19T02:54:48;7.85;;;4.15;;
80961;SDS011;70424;55.154;14.722;2023-11-19T02:57:13;7.95;;;4.70;;
80961;SDS011;70424;55.154;14.722;2023-11-19T02:59:40;9.68;;;4.80;;
80961;SDS011;70424;55.154;14.722;2023-11-19T03:02:08;9.02;;;5.05;;
80961;SDS011;70424;55.154;14.722;2023-11-19T03:04:37;8.95;;;4.57;;
80961;SDS011;70424;55.154;14.722;2023-11-19T03:07:05;10.30;;;5.28;;
80961;SDS011;70424;55.154;14.722;2023-11-19T03:09:32;8.70;;;4.82;;
80961;SDS011;70424;55.154;14.722;2023-11-19T03:11:58;9.27;;;5.05;;
80961;SDS011;70424;55.154;14.722;2023-11-19T03:14:24;9.55;;;5.38;;
80961;SDS011;70424;55.154;14.722;2023-11-19T03:16:49;8.73;;;4.80;;
80961;SDS011;70424;55.154;14.722;2023-11-19T03:19:15;8.15;;;4.97;;
80961;SDS011;70424;55.154;14.722;2023-11-19T03:21:41;8.82;;;5.15;;
80961;SDS011;70424;55.154;14.722;2023-11-19T03:24:06;10.52;;;5.70;;
80961;SDS011;70424;55.154;14.722;2023-11-19T03:26:33;10.07;;;5.57;;
80961;SDS011;70424;55.154;14.722;2023-11-19T03:28:59;11.85;;;5.88;;
80961;SDS011;70424;55.154;14.722;2023-11-19T03:31:24;9.73;;;5.93;;
80961;SDS011;70424;55.154;14.722;2023-11-19T03:33:50;9.77;;;5.78;;
80961;SDS011;70424;55.154;14.722;2023-11-19T03:36:15;10.48;;;6.63;;
80961;SDS011;70424;55.154;14.722;2023-11-19T03:38:40;12.30;;;6.45;;
80961;SDS011;70424;55.154;14.722;2023-11-19T03:41:16;11.70;;;6.03;;
80961;SDS011;70424;55.154;14.722;2023-11-19T03:43:42;12.35;;;7.05;;
80961;SDS011;70424;55.154;14.722;2023-11-19T03:46:17;11.98;;;6.35;;
80961;SDS011;70424;55.154;14.722;2023-11-19T03:48:49;12.48;;;7.20;;
80961;SDS011;70424;55.154;14.722;2023-11-19T03:51:15;12.98;;;7.10;;
80961;SDS011;70424;55.154;14.722;2023-11-19T03:53:47;13.20;;;7.35;;
80961;SDS011;70424;55.154;14.722;2023-11-19T03:56:12;13.70;;;7.15;;
80961;SDS011;70424;55.154;14.722;2023-11-19T03:58:38;14.10;;;7.97;;
80961;SDS011;70424;55.154;14.722;2023-11-19T04:01:04;12.77;;;7.03;;
80961;SDS011;70424;55.154;14.722;2023-11-19T04:03:30;12.95;;;7.30;;
80961;SDS011;70424;55.154;14.722;2023-11-19T04:05:55;13.60;;;7.32;;
80961;SDS011;70424;55.154;14.722;2023-11-19T04:08:21;13.02;;;8.02;;
80961;SDS011;70424;55.154;14.722;2023-11-19T04:10:47;14.45;;;8.32;;
80961;SDS011;70424;55.154;14.722;2023-11-19T04:13:12;14.68;;;7.25;;
80961;SDS011;70424;55.154;14.722;2023-11-19T04:15:37;14.40;;;7.68;;
80961;SDS011;70424;55.154;14.722;2023-11-19T04:18:03;15.23;;;7.88;;
80961;SDS011;70424;55.154;14.722;2023-11-19T04:20:28;12.43;;;7.20;;
80961;SDS011;70424;55.154;14.722;2023-11-19T04:22:53;12.23;;;7.50;;
80961;SDS011;70424;55.154;14.722;2023-11-19T04:25:19;13.55;;;7.55;;
80961;SDS011;70424;55.154;14.722;2023-11-19T04:27:44;11.98;;;6.63;;
80961;SDS011;70424;55.154;14.722;2023-11-19T04:30:10;13.07;;;7.82;;
80961;SDS011;70424;55.154;14.722;2023-11-19T04:32:36;12.07;;;7.13;;
80961;SDS011;70424;55.154;14.722;2023-11-19T04:35:02;13.70;;;7.32;;
80961;SDS011;70424;55.154;14.722;2023-11-19T04:37:27;15.00;;;7.97;;
80961;SDS011;70424;55.154;14.722;2023-11-19T04:39:53;12.77;;;7.00;;
80961;SDS011;70424;55.154;14.722;2023-11-19T04:42:18;12.50;;;7.05;;
80961;SDS011;70424;55.154;14.722;2023-11-19T04:44:44;12.82;;;7.28;;
80961;SDS011;70424;55.154;14.722;2023-11-19T04:47:10;13.25;;;7.72;;
80961;SDS011;70424;55.154;14.722;2023-11-19T04:49:39;12.50;;;7.22;;
80961;SDS011;70424;55.154;14.722;2023-11-19T04:52:05;12.43;;;7.63;;
80961;SDS011;70424;55.154;14.722;2023-11-19T04:54:30;12.23;;;7.43;;
80961;SDS011;70424;55.154;14.722;2023-11-19T04:56:56;14.68;;;6.93;;
80961;SDS011;70424;55.154;14.722;2023-11-19T04:59:21;11.43;;;6.93;;
80961;SDS011;70424;55.154;14.722;2023-11-19T05:01:47;13.68;;;7.07;;
80961;SDS011;70424;55.154;14.722;2023-11-19T05:04:13;13.75;;;7.30;;
80961;SDS011;70424;55.154;14.722;2023-11-19T05:06:38;13.80;;;7.63;;
80961;SDS011;70424;55.154;14.722;2023-11-19T05:09:04;12.93;;;7.13;;
80961;SDS011;70424;55.154;14.722;2023-11-19T05:11:38;11.50;;;7.25;;
80961;SDS011;70424;55.154;14.722;2023-11-19T05:14:04;13.45;;;7.78;;
80961;SDS011;70424;55.154;14.722;2023-11-19T05:16:30;14.32;;;8.57;;
80961;SDS011;70424;55.154;14.722;2023-11-19T05:18:56;14.35;;;7.47;;
80961;SDS011;70424;55.154;14.722;2023-11-19T05:21:21;15.20;;;8.77;;
80961;SDS011;70424;55.154;14.722;2023-11-19T05:23:46;14.20;;;8.10;;
80961;SDS011;70424;55.154;14.722;2023-11-19T05:26:19;15.27;;;8.40;;
80961;SDS011;70424;55.154;14.722;2023-11-19T05:28:45;14.95;;;8.02;;
80961;SDS011;70424;55.154;14.722;2023-11-19T05:31:11;15.20;;;8.20;;
80961;SDS011;70424;55.154;14.722;2023-11-19T05:33:36;16.98;;;9.27;;
80961;SDS011;70424;55.154;14.722;2023-11-19T05:36:01;15.63;;;8.43;;
80961;SDS011;70424;55.154;14.722;2023-11-19T05:38:28;13.73;;;8.30;;
80961;SDS011;70424;55.154;14.722;2023-11-19T05:40:54;15.82;;;8.43;;
80961;SDS011;70424;55.154;14.722;2023-11-19T05:43:19;14.65;;;8.65;;
80961;SDS011;70424;55.154;14.722;2023-11-19T05:45:48;16.38;;;9.18;;
80961;SDS011;70424;55.154;14.722;2023-11-19T05:48:14;19.08;;;9.13;;
80961;SDS011;70424;55.154;14.722;2023-11-19T05:50:39;15.77;;;8.30;;
80961;SDS011;70424;55.154;14.722;2023-11-19T05:53:05;14.85;;;8.90;;
80961;SDS011;70424;55.154;14.722;2023-11-19T05:55:34;16.23;;;8.40;;
80961;SDS011;70424;55.154;14.722;2023-11-19T05:58:00;16.35;;;8.63;;
80961;SDS011;70424;55.154;14.722;2023-11-19T06:00:26;17.00;;;9.07;;
80961;SDS011;70424;55.154;14.722;2023-11-19T06:02:51;14.75;;;8.38;;
80961;SDS011;70424;55.154;14.722;2023-11-19T06:05:17;17.80;;;9.95;;
80961;SDS011;70424;55.154;14.722;2023-11-19T06:07:43;14.02;;;8.70;;
80961;SDS011;70424;55.154;14.722;2023-11-19T06:10:08;15.13;;;8.70;;
80961;SDS011;70424;55.154;14.722;2023-11-19T06:12:35;15.15;;;8.45;;
80961;SDS011;70424;55.154;14.722;2023-11-19T06:15:03;14.48;;;8.27;;
80961;SDS011;70424;55.154;14.722;2023-11-19T06:17:30;15.00;;;8.68;;
80961;SDS011;70424;55.154;14.722;2023-11-19T06:19:55;14.00;;;8.35;;
80961;SDS011;70424;55.154;14.722;2023-11-19T06:22:20;14.07;;;7.88;;
80961;SDS011;70424;55.154;14.722;2023-11-19T06:24:46;14.32;;;8.35;;
80961;SDS011;70424;55.154;14.722;2023-11-19T06:27:12;16.35;;;8.90;;
80961;SDS011;70424;55.154;14.722;2023-11-19T06:29:38;14.70;;;8.20;;
80961;SDS011;70424;55.154;14.722;2023-11-19T06:32:05;15.63;;;9.00;;
80961;SDS011;70424;55.154;14.722;2023-11-19T06:34:31;14.18;;;8.20;;
80961;SDS011;70424;55.154;14.722;2023-11-19T06:36:58;18.33;;;8.38;;
80961;SDS011;70424;55.154;14.722;2023-11-19T06:39:23;13.77;;;8.18;;
80961;SDS011;70424;55.154;14.722;2023-11-19T06:41:48;14.63;;;8.60;;
80961;SDS011;70424;55.154;14.722;2023-11-19T06:44:14;15.82;;;8.63;;
80961;SDS011;70424;55.154;14.722;2023-11-19T06:46:39;15.30;;;8.85;;
80961;SDS011;70424;55.154;14.722;2023-11-19T06:49:05;15.95;;;8.48;;
80961;SDS011;70424;55.154;14.722;2023-11-19T06:51:33;14.43;;;8.43;;
80961;SDS011;70424;55.154;14.722;2023-11-19T06:53:58;13.18;;;8.10;;
80961;SDS011;70424;55.154;14.722;2023-11-19T06:56:24;14.80;;;8.10;;
80961;SDS011;70424;55.154;14.722;2023-11-19T06:58:50;14.30;;;8.20;;
80961;SDS011;70424;55.154;14.722;2023-11-19T07:01:16;16.73;;;8.25;;
80961;SDS011;70424;55.154;14.722;2023-11-19T07:03:44;13.73;;;8.60;;
80961;SDS011;70424;55.154;14.722;2023-11-19T07:06:12;14.77;;;8.63;;
80961;SDS011;70424;55.154;14.722;2023-11-19T07:08:38;15.80;;;8.55;;
80961;SDS011;70424;55.154;14.722;2023-11-19T07:11:04;16.38;;;8.57;;
80961;SDS011;70424;55.154;14.722;2023-11-19T07:13:29;14.98;;;8.13;;
80961;SDS011;70424;55.154;14.722;2023-11-19T07:15:55;16.13;;;8.77;;
80961;SDS011;70424;55.154;14.722;2023-11-19T07:18:21;15.15;;;8.52;;
80961;SDS011;70424;55.154;14.722;2023-11-19T07:20:47;14.65;;;9.50;;
80961;SDS011;70424;55.154;14.722;2023-11-19T07:23:13;14.32;;;9.15;;
80961;SDS011;70424;55.154;14.722;2023-11-19T07:25:39;17.30;;;9.00;;
80961;SDS011;70424;55.154;14.722;2023-11-19T07:28:05;15.80;;;9.45;;
80961;SDS011;70424;55.154;14.722;2023-11-19T07:30:30;17.20;;;9.38;;
80961;SDS011;70424;55.154;14.722;2023-11-19T07:32:56;15.73;;;7.70;;
80961;SDS011;70424;55.154;14.722;2023-11-19T07:35:21;15.15;;;8.77;;
80961;SDS011;70424;55.154;14.722;2023-11-19T07:37:47;14.07;;;8.50;;
80961;SDS011;70424;55.154;14.722;2023-11-19T07:40:12;13.55;;;8.30;;
80961;SDS011;70424;55.154;14.722;2023-11-19T07:42:38;14.27;;;8.85;;
80961;SDS011;70424;55.154;14.722;2023-11-19T07:45:03;15.50;;;8.75;;
80961;SDS011;70424;55.154;14.722;2023-11-19T07:47:30;13.55;;;8.63;;
80961;SDS011;70424;55.154;14.722;2023-11-19T07:49:55;14.65;;;8.48;;
80961;SDS011;70424;55.154;14.722;2023-11-19T07:52:21;14.70;;;8.68;;
80961;SDS011;70424;55.154;14.722;2023-11-19T07:54:46;12.55;;;7.93;;
80961;SDS011;70424;55.154;14.722;2023-11-19T07:57:12;12.80;;;7.85;;
80961;SDS011;70424;55.154;14.722;2023-11-19T07:59:37;16.23;;;8.57;;
80961;SDS011;70424;55.154;14.722;2023-11-19T08:02:02;15.32;;;9.07;;
80961;SDS011;70424;55.154;14.722;2023-11-19T08:04:30;14.90;;;8.93;;
80961;SDS011;70424;55.154;14.722;2023-11-19T08:06:55;16.73;;;9.55;;
80961;SDS011;70424;55.154;14.722;2023-11-19T08:09:20;14.13;;;9.02;;
80961;SDS011;70424;55.154;14.722;2023-11-19T08:11:46;13.25;;;8.40;;
80961;SDS011;70424;55.154;14.722;2023-11-19T08:14:11;13.73;;;7.93;;
80961;SDS011;70424;55.154;14.722;2023-11-19T08:16:38;15.25;;;8.55;;
80961;SDS011;70424;55.154;14.722;2023-11-19T08:19:04;16.00;;;9.00;;
80961;SDS011;70424;55.154;14.722;2023-11-19T08:21:29;14.40;;;8.48;;
80961;SDS011;70424;55.154;14.722;2023-11-19T08:23:55;15.35;;;8.70;;
80961;SDS011;70424;55.154;14.722;2023-11-19T08:26:20;14.25;;;7.80;;
80961;SDS011;70424;55.154;14.722;2023-11-19T08:28:45;14.45;;;8.85;;
80961;SDS011;70424;55.154;14.722;2023-11-19T08:31:11;13.68;;;8.63;;
80961;SDS011;70424;55.154;14.722;2023-11-19T08:33:36;15.93;;;8.60;;
80961;SDS011;70424;55.154;14.722;2023-11-19T08:36:02;13.50;;;8.02;;
80961;SDS011;70424;55.154;14.722;2023-11-19T08:38:29;14.27;;;8.02;;
80961;SDS011;70424;55.154;14.722;2023-11-19T08:40:54;13.60;;;7.65;;
80961;SDS011;70424;55.154;14.722;2023-11-19T08:43:24;14.38;;;8.38;;
80961;SDS011;70424;55.154;14.722;2023-11-19T08:45:50;14.43;;;7.60;;
80961;SDS011;70424;55.154;14.722;2023-11-19T08:48:16;14.80;;;8.43;;
80961;SDS011;70424;55.154;14.722;2023-11-19T08:50:41;15.77;;;7.93;;
80961;SDS011;70424;55.154;14.722;2023-11-19T08:53:06;11.55;;;6.95;;
80961;SDS011;70424;55.154;14.722;2023-11-19T08:55:32;12.82;;;7.43;;
80961;SDS011;70424;55.154;14.722;2023-11-19T08:57:57;13.70;;;7.53;;
80961;SDS011;70424;55.154;14.722;2023-11-19T09:00:23;13.45;;;7.30;;
80961;SDS011;70424;55.154;14.722;2023-11-19T09:02:48;14.10;;;7.88;;
80961;SDS011;70424;55.154;14.722;2023-11-19T09:05:14;13.13;;;7.43;;
80961;SDS011;70424;55.154;14.722;2023-11-19T09:07:39;11.15;;;6.97;;
80961;SDS011;70424;55.154;14.722;2023-11-19T09:10:04;12.80;;;7.20;;
80961;SDS011;70424;55.154;14.722;2023-11-19T09:12:30;12.38;;;8.00;;
80961;SDS011;70424;55.154;14.722;2023-11-19T09:14:56;13.52;;;8.25;;
80961;SDS011;70424;55.154;14.722;2023-11-19T09:17:21;14.45;;;7.88;;
80961;SDS011;70424;55.154;14.722;2023-11-19T09:19:46;12.45;;;7.22;;
80961;SDS011;70424;55.154;14.722;2023-11-19T09:22:12;13.52;;;7.43;;
80961;SDS011;70424;55.154;14.722;2023-11-19T09:24:37;12.30;;;6.97;;
80961;SDS011;70424;55.154;14.722;2023-11-19T09:27:03;15.10;;;7.22;;
80961;SDS011;70424;55.154;14.722;2023-11-19T09:29:31;12.43;;;7.05;;
80961;SDS011;70424;55.154;14.722;2023-11-19T09:31:57;12.73;;;7.43;;
80961;SDS011;70424;55.154;14.722;2023-11-19T09:34:22;15.30;;;8.50;;
80961;SDS011;70424;55.154;14.722;2023-11-19T09:36:47;12.82;;;7.80;;
80961;SDS011;70424;55.154;14.722;2023-11-19T09:39:13;13.65;;;7.60;;
80961;SDS011;70424;55.154;14.722;2023-11-19T09:41:43;13.10;;;7.25;;
80961;SDS011;70424;55.154;14.722;2023-11-19T09:44:11;11.82;;;7.47;;
80961;SDS011;70424;55.154;14.722;2023-11-19T09:46:37;12.00;;;7.45;;
80961;SDS011;70424;55.154;14.722;2023-11-19T09:49:05;11.52;;;7.32;;
80961;SDS011;70424;55.154;14.722;2023-11-19T09:53:59;11.50;;;7.30;;
80961;SDS011;70424;55.154;14.722;2023-11-19T09:56:24;12.02;;;6.80;;
80961;SDS011;70424;55.154;14.722;2023-11-19T09:58:51;11.25;;;6.53;;
80961;SDS011;70424;55.154;14.722;2023-11-19T10:01:17;13.43;;;7.65;;
80961;SDS011;70424;55.154;14.722;2023-11-19T10:03:42;10.68;;;6.55;;
80961;SDS011;70424;55.154;14.722;2023-11-19T10:06:12;11.57;;;7.50;;
80961;SDS011;70424;55.154;14.722;2023-11-19T10:08:38;8.50;;;5.85;;
80961;SDS011;70424;55.154;14.722;2023-11-19T10:11:07;10.40;;;5.63;;
80961;SDS011;70424;55.154;14.722;2023-11-19T10:13:36;11.15;;;6.13;;
80961;SDS011;70424;55.154;14.722;2023-11-19T10:16:09;10.10;;;5.55;;
80961;SDS011;70424;55.154;14.722;2023-11-19T10:18:37;14.75;;;7.05;;
80961;SDS011;70424;55.154;14.722;2023-11-19T10:21:06;9.93;;;6.55;;
80961;SDS011;70424;55.154;14.722;2023-11-19T10:23:47;10.65;;;5.90;;
80961;SDS011;70424;55.154;14.722;2023-11-19T10:26:14;9.85;;;5.13;;
80961;SDS011;70424;55.154;14.722;2023-11-19T10:28:39;9.25;;;5.55;;
80961;SDS011;70424;55.154;14.722;2023-11-19T10:31:10;10.00;;;5.97;;
80961;SDS011;70424;55.154;14.722;2023-11-19T10:33:36;10.38;;;6.05;;
80961;SDS011;70424;55.154;14.722;2023-11-19T10:36:01;9.25;;;5.65;;
80961;SDS011;70424;55.154;14.722;2023-11-19T10:38:26;9.57;;;5.70;;
80961;SDS011;70424;55.154;14.722;2023-11-19T10:40:52;9.38;;;5.10;;
80961;SDS011;70424;55.154;14.722;2023-11-19T10:43:19;6.87;;;4.47;;
80961;SDS011;70424;55.154;14.722;2023-11-19T10:45:47;7.45;;;4.38;;
80961;SDS011;70424;55.154;14.722;2023-11-19T10:48:13;8.65;;;5.00;;
80961;SDS011;70424;55.154;14.722;2023-11-19T10:50:39;6.88;;;4.18;;
80961;SDS011;70424;55.154;14.722;2023-11-19T10:53:06;7.60;;;4.38;;
80961;SDS011;70424;55.154;14.722;2023-11-19T10:55:34;7.43;;;4.53;;
80961;SDS011;70424;55.154;14.722;2023-11-19T10:58:01;8.15;;;4.80;;
80961;SDS011;70424;55.154;14.722;2023-11-19T11:00:33;7.65;;;4.88;;
80961;SDS011;70424;55.154;14.722;2023-11-19T11:03:05;7.80;;;4.78;;
80961;SDS011;70424;55.154;14.722;2023-11-19T11:05:35;8.02;;;4.68;;
80961;SDS011;70424;55.154;14.722;2023-11-19T11:08:03;8.43;;;4.88;;
80961;SDS011;70424;55.154;14.722;2023-11-19T11:10:31;10.20;;;4.60;;
80961;SDS011;70424;55.154;14.722;2023-11-19T11:13:00;8.02;;;5.03;;
80961;SDS011;70424;55.154;14.722;2023-11-19T11:15:28;7.40;;;4.60;;
80961;SDS011;70424;55.154;14.722;2023-11-19T11:17:57;7.05;;;4.70;;
80961;SDS011;70424;55.154;14.722;2023-11-19T11:20:26;8.95;;;5.55;;
80961;SDS011;70424;55.154;14.722;2023-11-19T11:23:08;7.82;;;4.50;;
80961;SDS011;70424;55.154;14.722;2023-11-19T11:25:43;8.25;;;4.88;;
80961;SDS011;70424;55.154;14.722;2023-11-19T11:36:20;7.85;;;4.50;;
80961;SDS011;70424;55.154;14.722;2023-11-19T11:38:48;9.05;;;5.78;;
80961;SDS011;70424;55.154;14.722;2023-11-19T11:41:15;7.68;;;4.78;;
80961;SDS011;70424;55.154;14.722;2023-11-19T11:48:57;8.35;;;4.88;;
80961;SDS011;70424;55.154;14.722;2023-11-19T11:54:09;9.65;;;5.28;;
80961;SDS011;70424;55.154;14.722;2023-11-19T11:57:08;10.38;;;5.18;;
80961;SDS011;70424;55.154;14.722;2023-11-19T12:02:20;8.70;;;4.95;;
80961;SDS011;70424;55.154;14.722;2023-11-19T12:04:47;9.45;;;4.72;;
80961;SDS011;70424;55.154;14.722;2023-11-19T12:07:15;7.95;;;5.18;;
80961;SDS011;70424;55.154;14.722;2023-11-19T12:09:45;8.02;;;4.85;;
80961;SDS011;70424;55.154;14.722;2023-11-19T12:12:21;10.10;;;5.32;;
80961;SDS011;70424;55.154;14.722;2023-11-19T12:22:25;10.20;;;5.10;;
80961;SDS011;70424;55.154;14.722;2023-11-19T12:24:51;8.13;;;4.82;;
80961;SDS011;70424;55.154;14.722;2023-11-19T12:27:20;8.85;;;5.22;;
80961;SDS011;70424;55.154;14.722;2023-11-19T12:29:48;8.60;;;5.53;;
80961;SDS011;70424;55.154;14.722;2023-11-19T12:32:14;7.93;;;4.88;;
80961;SDS011;70424;55.154;14.722;2023-11-19T12:34:40;9.02;;;4.95;;
80961;SDS011;70424;55.154;14.722;2023-11-19T12:37:05;9.82;;;5.53;;
80961;SDS011;70424;55.154;14.722;2023-11-19T12:39:31;8.90;;;5.45;;
80961;SDS011;70424;55.154;14.722;2023-11-19T12:41:57;8.23;;;4.97;;
80961;SDS011;70424;55.154;14.722;2023-11-19T12:44:27;9.73;;;5.40;;
80961;SDS011;70424;55.154;14.722;2023-11-19T12:46:59;9.50;;;5.18;;
80961;SDS011;70424;55.154;14.722;2023-11-19T12:49:32;8.00;;;5.20;;
80961;SDS011;70424;55.154;14.722;2023-11-19T12:52:00;7.43;;;5.00;;
80961;SDS011;70424;55.154;14.722;2023-11-19T12:54:32;8.63;;;4.93;;
80961;SDS011;70424;55.154;14.722;2023-11-19T12:56:58;9.18;;;5.10;;
80961;SDS011;70424;55.154;14.722;2023-11-19T12:59:24;8.68;;;5.10;;
80961;SDS011;70424;55.154;14.722;2023-11-19T13:01:58;9.07;;;5.72;;
80961;SDS011;70424;55.154;14.722;2023-11-19T13:04:27;8.48;;;5.90;;
80961;SDS011;70424;55.154;14.722;2023-11-19T13:06:53;8.23;;;5.38;;
80961;SDS011;70424;55.154;14.722;2023-11-19T13:09:25;8.85;;;5.60;;
80961;SDS011;70424;55.154;14.722;2023-11-19T13:11:52;9.38;;;5.85;;
80961;SDS011;70424;55.154;14.722;2023-11-19T13:14:18;9.82;;;5.53;;
80961;SDS011;70424;55.154;14.722;2023-11-19T13:16:44;10.07;;;5.35;;
80961;SDS011;70424;55.154;14.722;2023-11-19T13:19:11;8.18;;;5.55;;
80961;SDS011;70424;55.154;14.722;2023-11-19T13:21:37;9.60;;;5.93;;
80961;SDS011;70424;55.154;14.722;2023-11-19T13:24:04;8.77;;;5.30;;
80961;SDS011;70424;55.154;14.722;2023-11-19T13:26:32;9.32;;;5.10;;
80961;SDS011;70424;55.154;14.722;2023-11-19T13:28:58;8.75;;;4.95;;
80961;SDS011;70424;55.154;14.722;2023-11-19T13:31:23;7.90;;;5.20;;
80961;SDS011;70424;55.154;14.722;2023-11-19T13:33:48;10.45;;;4.82;;
80961;SDS011;70424;55.154;14.722;2023-11-19T13:36:14;8.85;;;6.30;;
80961;SDS011;70424;55.154;14.722;2023-11-19T13:38:39;8.45;;;5.35;;
80961;SDS011;70424;55.154;14.722;2023-11-19T13:41:07;8.52;;;4.85;;
80961;SDS011;70424;55.154;14.722;2023-11-19T13:46:00;9.05;;;5.82;;
80961;SDS011;70424;55.154;14.722;2023-11-19T13:48:25;9.63;;;6.00;;
80961;SDS011;70424;55.154;14.722;2023-11-19T13:50:54;7.72;;;5.03;;
80961;SDS011;70424;55.154;14.722;2023-11-19T13:53:20;10.45;;;5.70;;
80961;SDS011;70424;55.154;14.722;2023-11-19T13:55:46;8.57;;;5.28;;
80961;SDS011;70424;55.154;14.722;2023-11-19T13:58:12;8.38;;;4.85;;
80961;SDS011;70424;55.154;14.722;2023-11-19T14:00:38;8.50;;;5.32;;
80961;SDS011;70424;55.154;14.722;2023-11-19T14:03:03;8.52;;;5.18;;
80961;SDS011;70424;55.154;14.722;2023-11-19T14:05:29;7.50;;;4.72;;
80961;SDS011;70424;55.154;14.722;2023-11-19T14:07:54;8.18;;;5.47;;
80961;SDS011;70424;55.154;14.722;2023-11-19T14:10:22;7.72;;;4.97;;
80961;SDS011;70424;55.154;14.722;2023-11-19T14:12:47;10.55;;;5.30;;
80961;SDS011;70424;55.154;14.722;2023-11-19T14:15:14;8.30;;;5.28;;
80961;SDS011;70424;55.154;14.722;2023-11-19T14:17:42;7.90;;;5.28;;
80961;SDS011;70424;55.154;14.722;2023-11-19T14:20:08;7.90;;;4.82;;
80961;SDS011;70424;55.154;14.722;2023-11-19T14:22:41;9.93;;;5.75;;
80961;SDS011;70424;55.154;14.722;2023-11-19T14:25:07;8.90;;;5.55;;
80961;SDS011;70424;55.154;14.722;2023-11-19T14:27:36;9.50;;;5.63;;
80961;SDS011;70424;55.154;14.722;2023-11-19T14:30:03;8.90;;;5.37;;
80961;SDS011;70424;55.154;14.722;2023-11-19T14:34:56;8.40;;;5.38;;
80961;SDS011;70424;55.154;14.722;2023-11-19T14:37:21;8.18;;;5.18;;
80961;SDS011;70424;55.154;14.722;2023-11-19T14:39:46;9.40;;;6.30;;
80961;SDS011;70424;55.154;14.722;2023-11-19T14:42:12;8.82;;;5.65;;
80961;SDS011;70424;55.154;14.722;2023-11-19T14:44:38;9.30;;;5.65;;
80961;SDS011;70424;55.154;14.722;2023-11-19T14:47:04;8.80;;;5.95;;
80961;SDS011;70424;55.154;14.722;2023-11-19T14:49:30;10.93;;;6.30;;
80961;SDS011;70424;55.154;14.722;2023-11-19T14:51:55;8.65;;;5.53;;
80961;SDS011;70424;55.154;14.722;2023-11-19T14:54:20;10.65;;;5.60;;
80961;SDS011;70424;55.154;14.722;2023-11-19T14:56:46;8.82;;;6.13;;
80961;SDS011;70424;55.154;14.722;2023-11-19T14:59:11;9.77;;;5.82;;